sensor_id;sensor_type;location;lat;lon;timestamp;P1;durP1;ratioP1;P2;durP2;ratioP2
69327;SDS011;56472;52.114;5.492;2023-06-22T00:01:45;4.13;;;3.60;;
69327;SDS011;56472;52.114;5.492;2023-06-22T00:04:13;4.80;;;4.40;;
69327;SDS011;56472;52.114;5.492;2023-06-22T00:06:40;7.18;;;3.92;;
69327;SDS011;56472;52.114;5.492;2023-06-22T00:09:06;4.18;;;3.78;;
69327;SDS011;56472;52.114;5.492;2023-06-22T00:11:33;4.63;;;4.18;;
69327;SDS011;56472;52.114;5.492;2023-06-22T00:14:00;5.40;;;4.20;;
69327;SDS011;56472;52.114;5.492;2023-06-22T00:16:27;5.53;;;4.22;;
69327;SDS011;56472;52.114;5.492;2023-06-22T00:18:54;5.45;;;4.32;;
69327;SDS011;56472;52.114;5.492;2023-06-22T00:21:21;6.82;;;4.30;;
69327;SDS011;56472;52.114;5.492;2023-06-22T00:23:48;4.10;;;3.80;;
69327;SDS011;56472;52.114;5.492;2023-06-22T00:26:15;5.43;;;4.30;;
69327;SDS011;56472;52.114;5.492;2023-06-22T00:28:42;4.03;;;3.75;;
69327;SDS011;56472;52.114;5.492;2023-06-22T00:31:09;5.05;;;4.07;;
69327;SDS011;56472;52.114;5.492;2023-06-22T00:33:36;6.70;;;4.10;;
69327;SDS011;56472;52.114;5.492;2023-06-22T00:36:04;7.90;;;4.60;;
69327;SDS011;56472;52.114;5.492;2023-06-22T00:38:34;5.20;;;4.18;;
69327;SDS011;56472;52.114;5.492;2023-06-22T00:41:01;6.75;;;4.65;;
69327;SDS011;56472;52.114;5.492;2023-06-22T00:43:28;5.88;;;4.55;;
69327;SDS011;56472;52.114;5.492;2023-06-22T00:45:55;4.97;;;4.50;;
69327;SDS011;56472;52.114;5.492;2023-06-22T00:48:23;4.80;;;4.40;;
69327;SDS011;56472;52.114;5.492;2023-06-22T00:50:50;7.00;;;4.50;;
69327;SDS011;56472;52.114;5.492;2023-06-22T00:53:20;4.30;;;3.80;;
69327;SDS011;56472;52.114;5.492;2023-06-22T00:55:46;6.20;;;3.85;;
69327;SDS011;56472;52.114;5.492;2023-06-22T00:58:17;7.20;;;3.83;;
69327;SDS011;56472;52.114;5.492;2023-06-22T01:00:48;3.58;;;3.17;;
69327;SDS011;56472;52.114;5.492;2023-06-22T01:03:15;3.00;;;2.78;;
69327;SDS011;56472;52.114;5.492;2023-06-22T01:05:43;3.97;;;2.90;;
69327;SDS011;56472;52.114;5.492;2023-06-22T01:16:37;4.30;;;3.83;;
69327;SDS011;56472;52.114;5.492;2023-06-22T01:22:17;4.78;;;4.05;;
69327;SDS011;56472;52.114;5.492;2023-06-22T01:25:00;4.63;;;3.95;;
69327;SDS011;56472;52.114;5.492;2023-06-22T01:30:29;4.10;;;3.80;;
69327;SDS011;56472;52.114;5.492;2023-06-22T01:32:57;5.90;;;4.20;;
69327;SDS011;56472;52.114;5.492;2023-06-22T01:35:25;4.28;;;3.88;;
69327;SDS011;56472;52.114;5.492;2023-06-22T01:37:53;4.38;;;4.07;;
69327;SDS011;56472;52.114;5.492;2023-06-22T01:40:21;4.70;;;4.30;;
69327;SDS011;56472;52.114;5.492;2023-06-22T01:42:50;5.60;;;4.22;;
69327;SDS011;56472;52.114;5.492;2023-06-22T01:45:18;4.60;;;4.00;;
69327;SDS011;56472;52.114;5.492;2023-06-22T01:47:45;5.43;;;4.30;;
69327;SDS011;56472;52.114;5.492;2023-06-22T01:50:13;4.75;;;4.35;;
69327;SDS011;56472;52.114;5.492;2023-06-22T01:52:41;4.75;;;4.35;;
69327;SDS011;56472;52.114;5.492;2023-06-22T01:55:08;4.75;;;4.05;;
69327;SDS011;56472;52.114;5.492;2023-06-22T01:57:35;4.78;;;4.25;;
69327;SDS011;56472;52.114;5.492;2023-06-22T02:00:07;5.07;;;4.50;;
69327;SDS011;56472;52.114;5.492;2023-06-22T02:03:03;4.93;;;4.20;;
69327;SDS011;56472;52.114;5.492;2023-06-22T02:05:34;4.78;;;4.28;;
69327;SDS011;56472;52.114;5.492;2023-06-22T02:08:11;4.22;;;3.92;;
69327;SDS011;56472;52.114;5.492;2023-06-22T02:10:44;7.57;;;3.65;;
69327;SDS011;56472;52.114;5.492;2023-06-22T02:13:13;4.88;;;2.58;;
69327;SDS011;56472;52.114;5.492;2023-06-22T02:15:41;2.75;;;2.55;;
69327;SDS011;56472;52.114;5.492;2023-06-22T02:18:11;2.60;;;2.25;;
69327;SDS011;56472;52.114;5.492;2023-06-22T02:20:39;2.40;;;2.30;;
69327;SDS011;56472;52.114;5.492;2023-06-22T02:23:07;2.50;;;2.30;;
69327;SDS011;56472;52.114;5.492;2023-06-22T02:25:35;2.47;;;2.13;;
69327;SDS011;56472;52.114;5.492;2023-06-22T02:28:02;3.35;;;1.92;;
69327;SDS011;56472;52.114;5.492;2023-06-22T02:30:29;1.80;;;1.70;;
69327;SDS011;56472;52.114;5.492;2023-06-22T02:32:58;2.13;;;1.90;;
69327;SDS011;56472;52.114;5.492;2023-06-22T02:35:26;2.20;;;2.10;;
69327;SDS011;56472;52.114;5.492;2023-06-22T02:37:58;2.10;;;2.00;;
69327;SDS011;56472;52.114;5.492;2023-06-22T02:40:27;2.25;;;2.15;;
69327;SDS011;56472;52.114;5.492;2023-06-22T02:42:56;2.05;;;1.90;;
69327;SDS011;56472;52.114;5.492;2023-06-22T02:47:55;2.17;;;1.90;;
69327;SDS011;56472;52.114;5.492;2023-06-22T02:50:23;1.85;;;1.75;;
69327;SDS011;56472;52.114;5.492;2023-06-22T02:52:51;1.45;;;1.42;;
69327;SDS011;56472;52.114;5.492;2023-06-22T02:55:18;1.95;;;1.85;;
69327;SDS011;56472;52.114;5.492;2023-06-22T02:57:52;1.80;;;1.70;;
69327;SDS011;56472;52.114;5.492;2023-06-22T03:00:20;2.58;;;2.30;;
69327;SDS011;56472;52.114;5.492;2023-06-22T03:02:48;3.30;;;2.75;;
69327;SDS011;56472;52.114;5.492;2023-06-22T03:05:16;2.80;;;2.70;;
69327;SDS011;56472;52.114;5.492;2023-06-22T03:07:45;3.70;;;3.00;;
69327;SDS011;56472;52.114;5.492;2023-06-22T03:10:12;3.42;;;3.13;;
69327;SDS011;56472;52.114;5.492;2023-06-22T03:12:41;7.25;;;3.30;;
69327;SDS011;56472;52.114;5.492;2023-06-22T03:15:09;4.95;;;3.65;;
69327;SDS011;56472;52.114;5.492;2023-06-22T03:17:38;5.28;;;3.45;;
69327;SDS011;56472;52.114;5.492;2023-06-22T03:20:08;3.90;;;3.60;;
69327;SDS011;56472;52.114;5.492;2023-06-22T03:22:37;4.15;;;3.75;;
69327;SDS011;56472;52.114;5.492;2023-06-22T03:25:05;4.00;;;3.60;;
69327;SDS011;56472;52.114;5.492;2023-06-22T03:27:39;3.67;;;3.33;;
69327;SDS011;56472;52.114;5.492;2023-06-22T03:30:07;4.40;;;2.83;;
69327;SDS011;56472;52.114;5.492;2023-06-22T03:32:36;2.60;;;2.40;;
69327;SDS011;56472;52.114;5.492;2023-06-22T03:35:05;2.38;;;2.22;;
69327;SDS011;56472;52.114;5.492;2023-06-22T03:37:35;4.88;;;2.13;;
69327;SDS011;56472;52.114;5.492;2023-06-22T03:40:02;3.03;;;2.10;;
69327;SDS011;56472;52.114;5.492;2023-06-22T03:42:35;6.22;;;2.30;;
69327;SDS011;56472;52.114;5.492;2023-06-22T03:45:03;2.40;;;2.30;;
69327;SDS011;56472;52.114;5.492;2023-06-22T03:47:30;4.95;;;2.70;;
69327;SDS011;56472;52.114;5.492;2023-06-22T03:49:57;2.88;;;2.67;;
69327;SDS011;56472;52.114;5.492;2023-06-22T03:52:24;3.63;;;3.33;;
69327;SDS011;56472;52.114;5.492;2023-06-22T03:54:51;3.70;;;3.20;;
69327;SDS011;56472;52.114;5.492;2023-06-22T03:57:18;3.25;;;3.05;;
69327;SDS011;56472;52.114;5.492;2023-06-22T03:59:45;4.80;;;2.70;;
69327;SDS011;56472;52.114;5.492;2023-06-22T04:02:12;2.85;;;2.65;;
69327;SDS011;56472;52.114;5.492;2023-06-22T04:04:39;3.67;;;2.90;;
69327;SDS011;56472;52.114;5.492;2023-06-22T04:07:07;3.20;;;3.00;;
69327;SDS011;56472;52.114;5.492;2023-06-22T04:09:34;3.13;;;2.72;;
69327;SDS011;56472;52.114;5.492;2023-06-22T04:12:01;3.10;;;2.90;;
69327;SDS011;56472;52.114;5.492;2023-06-22T04:14:29;4.95;;;3.35;;
69327;SDS011;56472;52.114;5.492;2023-06-22T04:16:56;3.17;;;2.97;;
69327;SDS011;56472;52.114;5.492;2023-06-22T04:19:23;4.38;;;3.88;;
69327;SDS011;56472;52.114;5.492;2023-06-22T04:21:50;5.50;;;3.70;;
69327;SDS011;56472;52.114;5.492;2023-06-22T04:24:17;4.25;;;3.58;;
69327;SDS011;56472;52.114;5.492;2023-06-22T04:26:44;7.75;;;3.92;;
69327;SDS011;56472;52.114;5.492;2023-06-22T04:29:12;4.00;;;3.70;;
69327;SDS011;56472;52.114;5.492;2023-06-22T04:31:39;5.20;;;3.90;;
69327;SDS011;56472;52.114;5.492;2023-06-22T04:34:07;4.63;;;3.75;;
69327;SDS011;56472;52.114;5.492;2023-06-22T04:36:38;4.10;;;3.80;;
69327;SDS011;56472;52.114;5.492;2023-06-22T04:41:40;4.95;;;3.63;;
69327;SDS011;56472;52.114;5.492;2023-06-22T04:44:17;6.40;;;4.10;;
69327;SDS011;56472;52.114;5.492;2023-06-22T04:46:54;4.80;;;4.43;;
69327;SDS011;56472;52.114;5.492;2023-06-22T04:49:35;5.78;;;4.90;;
69327;SDS011;56472;52.114;5.492;2023-06-22T04:52:04;5.55;;;4.47;;
69327;SDS011;56472;52.114;5.492;2023-06-22T04:57:04;6.03;;;4.90;;
69327;SDS011;56472;52.114;5.492;2023-06-22T04:59:36;5.07;;;4.68;;
69327;SDS011;56472;52.114;5.492;2023-06-22T05:02:05;7.28;;;4.47;;
69327;SDS011;56472;52.114;5.492;2023-06-22T05:04:32;5.00;;;4.60;;
69327;SDS011;56472;52.114;5.492;2023-06-22T05:07:02;4.65;;;4.25;;
69327;SDS011;56472;52.114;5.492;2023-06-22T05:09:30;6.38;;;4.75;;
69327;SDS011;56472;52.114;5.492;2023-06-22T05:11:57;11.63;;;5.00;;
69327;SDS011;56472;52.114;5.492;2023-06-22T05:14:24;7.60;;;4.53;;
69327;SDS011;56472;52.114;5.492;2023-06-22T05:16:51;6.57;;;5.40;;
69327;SDS011;56472;52.114;5.492;2023-06-22T05:19:25;7.95;;;5.22;;
69327;SDS011;56472;52.114;5.492;2023-06-22T05:21:57;6.20;;;5.22;;
69327;SDS011;56472;52.114;5.492;2023-06-22T05:24:24;7.15;;;5.95;;
69327;SDS011;56472;52.114;5.492;2023-06-22T05:26:51;12.45;;;5.85;;
69327;SDS011;56472;52.114;5.492;2023-06-22T05:29:18;8.02;;;6.28;;
69327;SDS011;56472;52.114;5.492;2023-06-22T05:31:45;12.73;;;7.20;;
69327;SDS011;56472;52.114;5.492;2023-06-22T05:34:12;8.95;;;7.05;;
69327;SDS011;56472;52.114;5.492;2023-06-22T05:36:39;14.68;;;7.80;;
69327;SDS011;56472;52.114;5.492;2023-06-22T05:39:13;12.18;;;7.68;;
69327;SDS011;56472;52.114;5.492;2023-06-22T05:41:41;16.88;;;8.50;;
69327;SDS011;56472;52.114;5.492;2023-06-22T05:44:09;13.25;;;9.15;;
69327;SDS011;56472;52.114;5.492;2023-06-22T05:46:36;15.27;;;10.23;;
69327;SDS011;56472;52.114;5.492;2023-06-22T05:49:06;15.18;;;10.68;;
69327;SDS011;56472;52.114;5.492;2023-06-22T05:51:33;16.52;;;11.60;;
69327;SDS011;56472;52.114;5.492;2023-06-22T05:54:00;23.58;;;12.80;;
69327;SDS011;56472;52.114;5.492;2023-06-22T05:56:27;19.70;;;13.23;;
69327;SDS011;56472;52.114;5.492;2023-06-22T05:58:54;15.10;;;11.48;;
69327;SDS011;56472;52.114;5.492;2023-06-22T06:01:21;9.40;;;7.70;;
69327;SDS011;56472;52.114;5.492;2023-06-22T06:03:48;21.73;;;13.20;;
69327;SDS011;56472;52.114;5.492;2023-06-22T06:06:16;18.50;;;14.00;;
69327;SDS011;56472;52.114;5.492;2023-06-22T06:08:43;20.67;;;13.85;;
69327;SDS011;56472;52.114;5.492;2023-06-22T06:11:10;21.63;;;14.55;;
69327;SDS011;56472;52.114;5.492;2023-06-22T06:13:37;15.93;;;10.88;;
69327;SDS011;56472;52.114;5.492;2023-06-22T06:16:04;13.85;;;11.98;;
69327;SDS011;56472;52.114;5.492;2023-06-22T06:18:31;14.55;;;8.55;;
69327;SDS011;56472;52.114;5.492;2023-06-22T06:20:58;11.57;;;8.77;;
69327;SDS011;56472;52.114;5.492;2023-06-22T06:23:25;11.90;;;9.43;;
69327;SDS011;56472;52.114;5.492;2023-06-22T06:25:52;18.25;;;10.07;;
69327;SDS011;56472;52.114;5.492;2023-06-22T06:28:19;15.90;;;11.07;;
69327;SDS011;56472;52.114;5.492;2023-06-22T06:30:46;13.82;;;10.82;;
69327;SDS011;56472;52.114;5.492;2023-06-22T06:33:13;15.45;;;10.80;;
69327;SDS011;56472;52.114;5.492;2023-06-22T06:35:40;11.20;;;8.05;;
69327;SDS011;56472;52.114;5.492;2023-06-22T06:38:07;10.40;;;9.30;;
69327;SDS011;56472;52.114;5.492;2023-06-22T06:40:34;13.35;;;9.88;;
69327;SDS011;56472;52.114;5.492;2023-06-22T06:43:01;13.95;;;9.43;;
69327;SDS011;56472;52.114;5.492;2023-06-22T06:45:28;13.82;;;8.80;;
69327;SDS011;56472;52.114;5.492;2023-06-22T06:47:57;12.15;;;9.45;;
69327;SDS011;56472;52.114;5.492;2023-06-22T06:50:24;12.60;;;8.38;;
69327;SDS011;56472;52.114;5.492;2023-06-22T06:52:51;13.05;;;9.27;;
69327;SDS011;56472;52.114;5.492;2023-06-22T06:55:18;15.52;;;10.20;;
69327;SDS011;56472;52.114;5.492;2023-06-22T06:57:46;9.77;;;8.30;;
69327;SDS011;56472;52.114;5.492;2023-06-22T07:00:14;10.15;;;7.50;;
69327;SDS011;56472;52.114;5.492;2023-06-22T07:02:42;10.05;;;7.32;;
69327;SDS011;56472;52.114;5.492;2023-06-22T07:05:11;9.48;;;8.10;;
69327;SDS011;56472;52.114;5.492;2023-06-22T07:07:39;12.20;;;7.53;;
69327;SDS011;56472;52.114;5.492;2023-06-22T07:10:08;10.75;;;7.53;;
69327;SDS011;56472;52.114;5.492;2023-06-22T07:12:35;8.95;;;8.05;;
69327;SDS011;56472;52.114;5.492;2023-06-22T07:15:03;11.45;;;8.02;;
69327;SDS011;56472;52.114;5.492;2023-06-22T07:17:31;9.57;;;8.15;;
69327;SDS011;56472;52.114;5.492;2023-06-22T07:19:58;11.63;;;8.80;;
69327;SDS011;56472;52.114;5.492;2023-06-22T07:22:25;7.38;;;6.68;;
69327;SDS011;56472;52.114;5.492;2023-06-22T07:24:53;8.00;;;7.18;;
69327;SDS011;56472;52.114;5.492;2023-06-22T07:27:20;7.50;;;6.38;;
69327;SDS011;56472;52.114;5.492;2023-06-22T07:29:47;8.98;;;7.28;;
69327;SDS011;56472;52.114;5.492;2023-06-22T07:32:14;7.07;;;6.38;;
69327;SDS011;56472;52.114;5.492;2023-06-22T07:34:42;8.98;;;7.00;;
69327;SDS011;56472;52.114;5.492;2023-06-22T07:37:10;9.38;;;8.05;;
69327;SDS011;56472;52.114;5.492;2023-06-22T07:39:37;10.88;;;7.03;;
69327;SDS011;56472;52.114;5.492;2023-06-22T07:42:04;8.20;;;7.00;;
69327;SDS011;56472;52.114;5.492;2023-06-22T07:44:31;7.55;;;6.47;;
69327;SDS011;56472;52.114;5.492;2023-06-22T07:46:58;14.95;;;5.97;;
69327;SDS011;56472;52.114;5.492;2023-06-22T07:49:27;11.48;;;6.80;;
69327;SDS011;56472;52.114;5.492;2023-06-22T07:51:55;8.52;;;6.10;;
69327;SDS011;56472;52.114;5.492;2023-06-22T07:54:22;9.13;;;6.88;;
69327;SDS011;56472;52.114;5.492;2023-06-22T07:56:49;9.25;;;7.80;;
69327;SDS011;56472;52.114;5.492;2023-06-22T07:59:16;7.85;;;6.85;;
69327;SDS011;56472;52.114;5.492;2023-06-22T08:01:43;6.82;;;6.00;;
69327;SDS011;56472;52.114;5.492;2023-06-22T08:04:10;6.78;;;5.72;;
69327;SDS011;56472;52.114;5.492;2023-06-22T08:06:37;9.00;;;6.82;;
69327;SDS011;56472;52.114;5.492;2023-06-22T08:09:04;8.02;;;5.57;;
69327;SDS011;56472;52.114;5.492;2023-06-22T08:11:31;7.03;;;5.53;;
69327;SDS011;56472;52.114;5.492;2023-06-22T08:13:58;5.47;;;4.97;;
69327;SDS011;56472;52.114;5.492;2023-06-22T08:16:25;4.72;;;4.38;;
69327;SDS011;56472;52.114;5.492;2023-06-22T08:18:52;5.50;;;4.78;;
69327;SDS011;56472;52.114;5.492;2023-06-22T08:21:19;6.28;;;5.03;;
69327;SDS011;56472;52.114;5.492;2023-06-22T08:23:47;6.03;;;4.80;;
69327;SDS011;56472;52.114;5.492;2023-06-22T08:26:14;5.07;;;4.63;;
69327;SDS011;56472;52.114;5.492;2023-06-22T08:28:41;5.03;;;4.40;;
69327;SDS011;56472;52.114;5.492;2023-06-22T08:31:08;4.47;;;4.07;;
69327;SDS011;56472;52.114;5.492;2023-06-22T08:33:38;8.73;;;5.28;;
69327;SDS011;56472;52.114;5.492;2023-06-22T08:36:15;5.18;;;4.70;;
69327;SDS011;56472;52.114;5.492;2023-06-22T08:38:42;4.30;;;3.97;;
69327;SDS011;56472;52.114;5.492;2023-06-22T08:41:09;5.47;;;4.97;;
69327;SDS011;56472;52.114;5.492;2023-06-22T08:43:36;4.60;;;4.20;;
69327;SDS011;56472;52.114;5.492;2023-06-22T08:46:03;5.03;;;4.55;;
69327;SDS011;56472;52.114;5.492;2023-06-22T08:48:30;4.10;;;3.80;;
69327;SDS011;56472;52.114;5.492;2023-06-22T08:50:57;4.38;;;3.75;;
69327;SDS011;56472;52.114;5.492;2023-06-22T08:53:24;5.18;;;3.95;;
69327;SDS011;56472;52.114;5.492;2023-06-22T08:55:51;4.53;;;4.13;;
69327;SDS011;56472;52.114;5.492;2023-06-22T08:58:18;4.60;;;4.20;;
69327;SDS011;56472;52.114;5.492;2023-06-22T09:00:47;4.60;;;4.18;;
69327;SDS011;56472;52.114;5.492;2023-06-22T09:03:15;5.70;;;3.72;;
69327;SDS011;56472;52.114;5.492;2023-06-22T09:05:42;4.22;;;3.90;;
69327;SDS011;56472;52.114;5.492;2023-06-22T09:08:10;3.60;;;3.30;;
69327;SDS011;56472;52.114;5.492;2023-06-22T09:10:37;4.05;;;3.75;;
69327;SDS011;56472;52.114;5.492;2023-06-22T09:13:04;3.60;;;3.15;;
69327;SDS011;56472;52.114;5.492;2023-06-22T09:15:31;4.03;;;3.35;;
69327;SDS011;56472;52.114;5.492;2023-06-22T09:17:58;3.97;;;3.58;;
69327;SDS011;56472;52.114;5.492;2023-06-22T09:20:25;4.22;;;3.13;;
69327;SDS011;56472;52.114;5.492;2023-06-22T09:22:53;3.67;;;3.35;;
69327;SDS011;56472;52.114;5.492;2023-06-22T09:25:20;3.75;;;2.88;;
69327;SDS011;56472;52.114;5.492;2023-06-22T09:27:47;3.70;;;3.40;;
69327;SDS011;56472;52.114;5.492;2023-06-22T09:30:14;3.33;;;3.05;;
69327;SDS011;56472;52.114;5.492;2023-06-22T09:32:41;3.53;;;3.30;;
69327;SDS011;56472;52.114;5.492;2023-06-22T09:35:09;3.17;;;2.88;;
69327;SDS011;56472;52.114;5.492;2023-06-22T09:37:40;3.55;;;3.25;;
69327;SDS011;56472;52.114;5.492;2023-06-22T09:40:07;3.65;;;3.35;;
69327;SDS011;56472;52.114;5.492;2023-06-22T09:42:36;4.10;;;2.92;;
69327;SDS011;56472;52.114;5.492;2023-06-22T09:45:03;3.72;;;3.20;;
69327;SDS011;56472;52.114;5.492;2023-06-22T09:47:31;3.55;;;3.25;;
69327;SDS011;56472;52.114;5.492;2023-06-22T09:49:58;3.05;;;2.85;;
69327;SDS011;56472;52.114;5.492;2023-06-22T09:52:26;3.78;;;3.30;;
69327;SDS011;56472;52.114;5.492;2023-06-22T09:55:12;4.13;;;3.08;;
69327;SDS011;56472;52.114;5.492;2023-06-22T09:57:39;3.25;;;2.95;;
69327;SDS011;56472;52.114;5.492;2023-06-22T10:00:06;3.38;;;3.08;;
69327;SDS011;56472;52.114;5.492;2023-06-22T10:02:39;4.00;;;3.25;;
69327;SDS011;56472;52.114;5.492;2023-06-22T10:05:06;3.20;;;3.00;;
69327;SDS011;56472;52.114;5.492;2023-06-22T10:07:34;3.10;;;2.80;;
69327;SDS011;56472;52.114;5.492;2023-06-22T10:12:33;2.80;;;2.60;;
69327;SDS011;56472;52.114;5.492;2023-06-22T10:15:00;3.88;;;2.50;;
69327;SDS011;56472;52.114;5.492;2023-06-22T10:17:28;3.03;;;2.72;;
69327;SDS011;56472;52.114;5.492;2023-06-22T10:19:54;2.60;;;2.42;;
69327;SDS011;56472;52.114;5.492;2023-06-22T10:22:21;4.10;;;2.70;;
69327;SDS011;56472;52.114;5.492;2023-06-22T10:24:48;2.80;;;2.60;;
69327;SDS011;56472;52.114;5.492;2023-06-22T10:27:16;2.80;;;2.60;;
69327;SDS011;56472;52.114;5.492;2023-06-22T10:29:43;2.63;;;2.45;;
69327;SDS011;56472;52.114;5.492;2023-06-22T10:32:10;2.35;;;2.25;;
69327;SDS011;56472;52.114;5.492;2023-06-22T10:34:37;2.60;;;2.50;;
69327;SDS011;56472;52.114;5.492;2023-06-22T10:37:04;2.58;;;2.40;;
69327;SDS011;56472;52.114;5.492;2023-06-22T10:39:32;3.25;;;2.70;;
69327;SDS011;56472;52.114;5.492;2023-06-22T10:41:59;3.38;;;2.97;;
69327;SDS011;56472;52.114;5.492;2023-06-22T10:44:26;3.28;;;2.42;;
69327;SDS011;56472;52.114;5.492;2023-06-22T10:46:52;2.50;;;2.30;;
69327;SDS011;56472;52.114;5.492;2023-06-22T10:49:19;2.97;;;2.78;;
69327;SDS011;56472;52.114;5.492;2023-06-22T10:51:46;2.75;;;2.58;;
69327;SDS011;56472;52.114;5.492;2023-06-22T10:54:13;3.63;;;3.20;;
69327;SDS011;56472;52.114;5.492;2023-06-22T10:56:40;2.53;;;2.35;;
69327;SDS011;56472;52.114;5.492;2023-06-22T10:59:07;2.70;;;2.50;;
69327;SDS011;56472;52.114;5.492;2023-06-22T11:01:34;2.83;;;2.60;;
69327;SDS011;56472;52.114;5.492;2023-06-22T11:04:02;3.25;;;3.05;;
69327;SDS011;56472;52.114;5.492;2023-06-22T11:06:31;3.83;;;2.83;;
69327;SDS011;56472;52.114;5.492;2023-06-22T11:08:58;4.03;;;2.70;;
69327;SDS011;56472;52.114;5.492;2023-06-22T11:11:32;3.03;;;2.78;;
69327;SDS011;56472;52.114;5.492;2023-06-22T11:13:59;4.13;;;2.83;;
69327;SDS011;56472;52.114;5.492;2023-06-22T11:16:26;3.88;;;3.58;;
69327;SDS011;56472;52.114;5.492;2023-06-22T11:18:54;4.07;;;3.67;;
69327;SDS011;56472;52.114;5.492;2023-06-22T11:21:20;8.80;;;3.00;;
69327;SDS011;56472;52.114;5.492;2023-06-22T11:23:47;3.92;;;3.50;;
69327;SDS011;56472;52.114;5.492;2023-06-22T11:26:15;3.22;;;2.95;;
69327;SDS011;56472;52.114;5.492;2023-06-22T11:28:42;2.78;;;2.55;;
69327;SDS011;56472;52.114;5.492;2023-06-22T11:31:09;3.28;;;3.08;;
69327;SDS011;56472;52.114;5.492;2023-06-22T11:33:51;3.47;;;3.15;;
69327;SDS011;56472;52.114;5.492;2023-06-22T11:36:18;3.50;;;3.20;;
69327;SDS011;56472;52.114;5.492;2023-06-22T11:38:45;3.42;;;3.05;;
69327;SDS011;56472;52.114;5.492;2023-06-22T11:41:12;2.80;;;2.60;;
69327;SDS011;56472;52.114;5.492;2023-06-22T11:43:40;3.10;;;2.90;;
69327;SDS011;56472;52.114;5.492;2023-06-22T11:46:06;3.55;;;3.22;;
69327;SDS011;56472;52.114;5.492;2023-06-22T11:48:34;3.00;;;2.80;;
69327;SDS011;56472;52.114;5.492;2023-06-22T11:51:01;2.88;;;2.67;;
69327;SDS011;56472;52.114;5.492;2023-06-22T11:53:29;3.08;;;2.88;;
69327;SDS011;56472;52.114;5.492;2023-06-22T11:55:56;4.63;;;3.03;;
69327;SDS011;56472;52.114;5.492;2023-06-22T11:58:23;4.57;;;2.67;;
69327;SDS011;56472;52.114;5.492;2023-06-22T12:00:50;3.03;;;2.83;;
69327;SDS011;56472;52.114;5.492;2023-06-22T12:03:19;4.13;;;3.33;;
69327;SDS011;56472;52.114;5.492;2023-06-22T12:05:49;3.45;;;3.15;;
69327;SDS011;56472;52.114;5.492;2023-06-22T12:08:17;4.32;;;3.60;;
69327;SDS011;56472;52.114;5.492;2023-06-22T12:10:45;4.82;;;4.40;;
69327;SDS011;56472;52.114;5.492;2023-06-22T12:13:12;3.17;;;2.88;;
69327;SDS011;56472;52.114;5.492;2023-06-22T12:15:39;3.38;;;3.10;;
69327;SDS011;56472;52.114;5.492;2023-06-22T12:18:06;3.78;;;3.47;;
69327;SDS011;56472;52.114;5.492;2023-06-22T12:20:33;6.55;;;3.50;;
69327;SDS011;56472;52.114;5.492;2023-06-22T12:23:00;3.90;;;3.60;;
69327;SDS011;56472;52.114;5.492;2023-06-22T12:25:27;3.95;;;3.53;;
69327;SDS011;56472;52.114;5.492;2023-06-22T12:27:54;10.40;;;5.78;;
69327;SDS011;56472;52.114;5.492;2023-06-22T12:30:21;6.40;;;4.30;;
69327;SDS011;56472;52.114;5.492;2023-06-22T12:32:48;4.43;;;4.03;;
69327;SDS011;56472;52.114;5.492;2023-06-22T12:35:19;4.00;;;3.20;;
69327;SDS011;56472;52.114;5.492;2023-06-22T12:37:46;3.92;;;3.08;;
69327;SDS011;56472;52.114;5.492;2023-06-22T12:40:13;3.60;;;3.30;;
69327;SDS011;56472;52.114;5.492;2023-06-22T12:42:40;7.85;;;4.60;;
69327;SDS011;56472;52.114;5.492;2023-06-22T12:45:08;5.32;;;4.75;;
69327;SDS011;56472;52.114;5.492;2023-06-22T12:47:36;5.43;;;4.93;;
69327;SDS011;56472;52.114;5.492;2023-06-22T12:50:03;7.10;;;6.10;;
69327;SDS011;56472;52.114;5.492;2023-06-22T12:52:30;5.82;;;5.32;;
69327;SDS011;56472;52.114;5.492;2023-06-22T12:54:58;6.97;;;5.10;;
69327;SDS011;56472;52.114;5.492;2023-06-22T12:57:25;8.13;;;5.35;;
69327;SDS011;56472;52.114;5.492;2023-06-22T12:59:52;4.40;;;4.10;;
69327;SDS011;56472;52.114;5.492;2023-06-22T13:02:19;15.88;;;6.45;;
69327;SDS011;56472;52.114;5.492;2023-06-22T13:04:46;6.88;;;4.60;;
69327;SDS011;56472;52.114;5.492;2023-06-22T13:07:13;6.65;;;5.40;;
69327;SDS011;56472;52.114;5.492;2023-06-22T13:09:49;12.27;;;6.60;;
69327;SDS011;56472;52.114;5.492;2023-06-22T13:12:20;8.07;;;6.55;;
69327;SDS011;56472;52.114;5.492;2023-06-22T13:14:48;7.68;;;6.78;;
69327;SDS011;56472;52.114;5.492;2023-06-22T13:17:15;8.73;;;6.45;;
69327;SDS011;56472;52.114;5.492;2023-06-22T13:19:42;8.07;;;6.22;;
69327;SDS011;56472;52.114;5.492;2023-06-22T13:24:57;8.27;;;7.13;;
69327;SDS011;56472;52.114;5.492;2023-06-22T13:27:25;9.15;;;6.63;;
69327;SDS011;56472;52.114;5.492;2023-06-22T13:29:52;6.35;;;5.78;;
69327;SDS011;56472;52.114;5.492;2023-06-22T13:32:19;7.45;;;6.60;;
69327;SDS011;56472;52.114;5.492;2023-06-22T13:34:46;9.55;;;6.90;;
69327;SDS011;56472;52.114;5.492;2023-06-22T13:37:13;11.55;;;7.72;;
69327;SDS011;56472;52.114;5.492;2023-06-22T13:39:41;14.07;;;7.45;;
69327;SDS011;56472;52.114;5.492;2023-06-22T13:42:08;11.85;;;7.43;;
69327;SDS011;56472;52.114;5.492;2023-06-22T13:44:35;10.20;;;8.18;;
69327;SDS011;56472;52.114;5.492;2023-06-22T13:47:02;15.27;;;10.20;;
69327;SDS011;56472;52.114;5.492;2023-06-22T13:49:31;15.60;;;7.70;;
69327;SDS011;56472;52.114;5.492;2023-06-22T13:51:58;10.18;;;8.18;;
69327;SDS011;56472;52.114;5.492;2023-06-22T13:54:25;11.38;;;8.10;;
69327;SDS011;56472;52.114;5.492;2023-06-22T13:56:55;11.27;;;7.75;;
69327;SDS011;56472;52.114;5.492;2023-06-22T13:59:22;6.93;;;6.18;;
69327;SDS011;56472;52.114;5.492;2023-06-22T14:01:49;11.70;;;8.38;;
69327;SDS011;56472;52.114;5.492;2023-06-22T14:04:16;8.75;;;7.78;;
69327;SDS011;56472;52.114;5.492;2023-06-22T14:06:44;8.00;;;7.22;;
69327;SDS011;56472;52.114;5.492;2023-06-22T14:09:11;8.18;;;7.47;;
69327;SDS011;56472;52.114;5.492;2023-06-22T14:11:37;8.70;;;7.38;;
69327;SDS011;56472;52.114;5.492;2023-06-22T14:14:04;9.77;;;8.52;;
69327;SDS011;56472;52.114;5.492;2023-06-22T14:16:31;8.40;;;6.85;;
69327;SDS011;56472;52.114;5.492;2023-06-22T14:18:58;9.38;;;6.97;;
69327;SDS011;56472;52.114;5.492;2023-06-22T14:21:26;8.25;;;5.63;;
69327;SDS011;56472;52.114;5.492;2023-06-22T14:23:53;11.52;;;5.57;;
69327;SDS011;56472;52.114;5.492;2023-06-22T14:26:20;6.45;;;5.85;;
69327;SDS011;56472;52.114;5.492;2023-06-22T14:28:48;7.85;;;5.90;;
69327;SDS011;56472;52.114;5.492;2023-06-22T14:31:17;10.05;;;6.65;;
69327;SDS011;56472;52.114;5.492;2023-06-22T14:33:48;8.30;;;7.35;;
69327;SDS011;56472;52.114;5.492;2023-06-22T14:36:16;7.03;;;6.32;;
69327;SDS011;56472;52.114;5.492;2023-06-22T14:38:46;8.32;;;6.18;;
69327;SDS011;56472;52.114;5.492;2023-06-22T14:41:13;8.43;;;6.22;;
69327;SDS011;56472;52.114;5.492;2023-06-22T14:43:45;8.10;;;7.07;;
69327;SDS011;56472;52.114;5.492;2023-06-22T14:46:16;6.85;;;6.20;;
69327;SDS011;56472;52.114;5.492;2023-06-22T14:48:44;7.20;;;6.50;;
69327;SDS011;56472;52.114;5.492;2023-06-22T14:51:12;7.60;;;6.90;;
69327;SDS011;56472;52.114;5.492;2023-06-22T14:53:43;7.90;;;7.00;;
69327;SDS011;56472;52.114;5.492;2023-06-22T14:56:11;9.25;;;6.80;;
69327;SDS011;56472;52.114;5.492;2023-06-22T14:58:42;8.60;;;7.10;;
69327;SDS011;56472;52.114;5.492;2023-06-22T15:01:16;8.82;;;6.38;;
69327;SDS011;56472;52.114;5.492;2023-06-22T15:03:43;8.15;;;6.68;;
69327;SDS011;56472;52.114;5.492;2023-06-22T15:06:10;7.22;;;5.47;;
69327;SDS011;56472;52.114;5.492;2023-06-22T15:08:38;7.50;;;6.72;;
69327;SDS011;56472;52.114;5.492;2023-06-22T15:11:06;8.85;;;6.43;;
69327;SDS011;56472;52.114;5.492;2023-06-22T15:13:33;11.48;;;6.63;;
69327;SDS011;56472;52.114;5.492;2023-06-22T15:16:01;6.85;;;6.07;;
69327;SDS011;56472;52.114;5.492;2023-06-22T15:18:30;8.27;;;7.20;;